Time;durP1;ratioP1;P1;durP2;ratioP2;P2;SDS_P1;SDS_P2;PMS_P1;PMS_P2;Temp;Humidity;BMP_temperature;BMP_pressure;BME280_temperature;BME280_humidity;BME280_pressure;Samples;Min_cycle;Max_cycle;Signal;HPM_P1;HPM_P2
2022/03/15 00:01:48;;;;;;;9.55;6.18;;;;;;;;;;5072393;28;20191;-71
2022/03/15 00:04:15;;;;;;;8.20;4.88;;;;;;;;;;5069243;28;20202;-72
2022/03/15 00:06:42;;;;;;;8.55;5.93;;;;;;;;;;5068759;28;20240;-72
2022/03/15 00:09:09;;;;;;;7.72;5.40;;;;;;;;;;5070561;28;20214;-73
2022/03/15 00:11:40;;;;;;;7.32;5.65;;;;;;;;;;5070493;28;20194;-72
2022/03/15 00:14:09;;;;;;;6.78;5.68;;;;;;;;;;5069794;28;20194;-72
2022/03/15 00:16:36;;;;;;;7.32;5.30;;;;;;;;;;5070341;28;20198;-71
2022/03/15 00:19:03;;;;;;;7.90;5.90;;;;;;;;;;5078937;28;20194;-71
2022/03/15 00:21:31;;;;;;;7.40;6.45;;;;;;;;;;5069299;28;20679;-71
2022/03/15 00:23:59;;;;;;;6.70;6.00;;;;;;;;;;5063811;28;20230;-73
2022/03/15 00:26:28;;;;;;;7.85;5.95;;;;;;;;;;5080489;28;20245;-73
2022/03/15 00:28:56;;;;;;;7.20;5.40;;;;;;;;;;5073299;28;20261;-72
2022/03/15 00:31:23;;;;;;;6.68;5.57;;;;;;;;;;5068446;28;20191;-72
2022/03/15 00:33:50;;;;;;;8.35;6.45;;;;;;;;;;5073807;28;20625;-73
2022/03/15 00:36:17;;;;;;;6.90;4.90;;;;;;;;;;5084663;28;20285;-71
2022/03/15 00:38:44;;;;;;;6.93;5.28;;;;;;;;;;5065397;28;20195;-72
2022/03/15 00:41:11;;;;;;;7.55;4.80;;;;;;;;;;5070498;28;20194;-72
2022/03/15 00:43:38;;;;;;;8.00;5.60;;;;;;;;;;5068005;28;22158;-72
2022/03/15 00:46:07;;;;;;;7.05;5.25;;;;;;;;;;5076571;28;20217;-73
2022/03/15 00:48:34;;;;;;;5.97;4.60;;;;;;;;;;5070866;28;20191;-72
2022/03/15 00:51:02;;;;;;;8.48;5.38;;;;;;;;;;5069522;28;20194;-71
2022/03/15 00:53:29;;;;;;;6.63;5.93;;;;;;;;;;5068775;28;20655;-72
2022/03/15 00:55:56;;;;;;;6.88;4.95;;;;;;;;;;5076081;28;20256;-72
2022/03/15 00:58:23;;;;;;;6.50;5.75;;;;;;;;;;5069145;28;20203;-73
2022/03/15 01:00:50;;;;;;;7.00;5.38;;;;;;;;;;5070113;28;20281;-72
2022/03/15 01:03:18;;;;;;;5.53;4.97;;;;;;;;;;5070959;28;20206;-74
2022/03/15 01:05:45;;;;;;;8.85;6.28;;;;;;;;;;5070403;28;20229;-73
2022/03/15 01:08:12;;;;;;;7.95;5.28;;;;;;;;;;5074184;28;20198;-72
2022/03/15 01:10:41;;;;;;;9.48;5.32;;;;;;;;;;5075368;28;20656;-71
2022/03/15 01:13:08;;;;;;;4.78;4.30;;;;;;;;;;5070535;28;20403;-71
2022/03/15 01:15:42;;;;;;;8.43;5.70;;;;;;;;;;5073295;28;20190;-72
2022/03/15 01:18:09;;;;;;;5.90;5.00;;;;;;;;;;5069003;28;20197;-71
2022/03/15 01:20:38;;;;;;;6.57;5.85;;;;;;;;;;5056776;28;20247;-72
2022/03/15 01:23:06;;;;;;;6.90;4.75;;;;;;;;;;5070133;28;20616;-71
2022/03/15 01:25:33;;;;;;;5.85;4.97;;;;;;;;;;5064812;28;20218;-72
2022/03/15 01:28:00;;;;;;;5.78;4.50;;;;;;;;;;5069289;28;20218;-72
2022/03/15 01:30:30;;;;;;;8.60;5.03;;;;;;;;;;5069411;28;20197;-71
2022/03/15 01:32:57;;;;;;;8.68;5.97;;;;;;;;;;5069870;28;20194;-72
2022/03/15 01:35:24;;;;;;;7.88;6.45;;;;;;;;;;5082750;28;20193;-71
2022/03/15 01:37:53;;;;;;;7.57;6.30;;;;;;;;;;5072024;28;20526;-71
2022/03/15 01:40:20;;;;;;;9.50;6.07;;;;;;;;;;5065334;28;20269;-71
2022/03/15 01:42:47;;;;;;;8.55;5.10;;;;;;;;;;5070761;28;20605;-71
2022/03/15 01:45:14;;;;;;;9.52;5.45;;;;;;;;;;5068107;28;20194;-72
2022/03/15 01:47:42;;;;;;;7.22;5.13;;;;;;;;;;5069182;28;20190;-72
2022/03/15 01:50:10;;;;;;;9.40;6.15;;;;;;;;;;5080208;28;20668;-72
2022/03/15 01:52:37;;;;;;;10.02;5.97;;;;;;;;;;5071427;28;20194;-72
2022/03/15 01:55:07;;;;;;;9.50;5.03;;;;;;;;;;5074049;28;20587;-71
2022/03/15 01:57:34;;;;;;;9.90;5.38;;;;;;;;;;5069550;28;20194;-71
2022/03/15 02:00:01;;;;;;;5.90;4.30;;;;;;;;;;5066322;28;20198;-72
2022/03/15 02:02:28;;;;;;;5.90;4.95;;;;;;;;;;5071967;28;20197;-72
2022/03/15 02:04:55;;;;;;;6.90;5.22;;;;;;;;;;5073137;28;20198;-71
2022/03/15 02:07:22;;;;;;;6.03;4.70;;;;;;;;;;5068733;28;20610;-72
2022/03/15 02:09:50;;;;;;;6.22;5.63;;;;;;;;;;5071899;28;20267;-71
2022/03/15 02:12:18;;;;;;;6.85;4.90;;;;;;;;;;5074630;28;20273;-71
2022/03/15 02:14:45;;;;;;;6.10;5.60;;;;;;;;;;5069498;28;20202;-72
2022/03/15 02:17:12;;;;;;;10.25;6.00;;;;;;;;;;5076215;28;20198;-71
2022/03/15 02:19:39;;;;;;;6.35;5.72;;;;;;;;;;5071479;28;20202;-72
2022/03/15 02:22:07;;;;;;;7.57;5.85;;;;;;;;;;5072469;28;20187;-72
2022/03/15 02:24:35;;;;;;;6.40;4.88;;;;;;;;;;5077965;28;20628;-71
2022/03/15 02:27:02;;;;;;;7.25;6.15;;;;;;;;;;5077756;28;20221;-71
2022/03/15 02:29:29;;;;;;;4.25;3.90;;;;;;;;;;5068427;28;20256;-71
2022/03/15 02:31:56;;;;;;;7.22;5.15;;;;;;;;;;5073123;28;20195;-72
2022/03/15 02:34:25;;;;;;;7.80;5.88;;;;;;;;;;5083561;28;20194;-72
2022/03/15 02:36:52;;;;;;;6.65;5.13;;;;;;;;;;5081737;28;20224;-71
2022/03/15 02:39:21;;;;;;;6.40;5.45;;;;;;;;;;5071694;28;20198;-71
2022/03/15 02:41:48;;;;;;;8.68;5.47;;;;;;;;;;5073065;28;20641;-73
2022/03/15 02:44:15;;;;;;;8.32;5.53;;;;;;;;;;5069657;28;20194;-72
2022/03/15 02:46:42;;;;;;;9.25;5.65;;;;;;;;;;5075087;28;20608;-73
2022/03/15 02:49:10;;;;;;;9.13;5.63;;;;;;;;;;5071296;28;20194;-72
2022/03/15 02:51:37;;;;;;;10.00;5.68;;;;;;;;;;5073663;28;20537;-72
2022/03/15 02:54:11;;;;;;;6.32;5.40;;;;;;;;;;5072187;28;20603;-71
2022/03/15 02:56:43;;;;;;;7.55;6.03;;;;;;;;;;5067894;28;20197;-73
2022/03/15 02:59:10;;;;;;;6.00;5.13;;;;;;;;;;5071316;28;20194;-73
2022/03/15 03:01:37;;;;;;;6.45;4.72;;;;;;;;;;5071379;28;20560;-71
2022/03/15 03:04:04;;;;;;;6.97;4.53;;;;;;;;;;5072169;28;20205;-71
2022/03/15 03:06:31;;;;;;;5.38;4.88;;;;;;;;;;5072051;28;20263;-71
2022/03/15 03:08:58;;;;;;;6.70;5.97;;;;;;;;;;5069726;28;20645;-70
2022/03/15 03:11:25;;;;;;;4.60;4.20;;;;;;;;;;5073026;28;20198;-72
2022/03/15 03:13:58;;;;;;;7.13;5.75;;;;;;;;;;5070130;28;20226;-71
2022/03/15 03:16:26;;;;;;;5.90;5.28;;;;;;;;;;5072689;28;20216;-71
2022/03/15 03:18:54;;;;;;;7.72;5.30;;;;;;;;;;5073424;28;20190;-71
2022/03/15 03:21:22;;;;;;;8.15;4.95;;;;;;;;;;5072914;28;20195;-70
2022/03/15 03:23:51;;;;;;;5.85;5.15;;;;;;;;;;5065154;28;20693;-71
2022/03/15 03:26:18;;;;;;;6.93;5.28;;;;;;;;;;5062913;28;20225;-70
2022/03/15 03:28:45;;;;;;;8.70;5.57;;;;;;;;;;5071474;28;20248;-72
2022/03/15 03:31:14;;;;;;;10.02;5.40;;;;;;;;;;5070527;28;20620;-70
2022/03/15 03:33:41;;;;;;;5.10;4.70;;;;;;;;;;5070535;28;20194;-72
2022/03/15 03:36:09;;;;;;;8.35;5.53;;;;;;;;;;5071917;28;20205;-72
2022/03/15 03:38:36;;;;;;;6.00;5.22;;;;;;;;;;5065664;28;20199;-72
2022/03/15 03:41:03;;;;;;;6.97;4.85;;;;;;;;;;5069392;28;20194;-73
2022/03/15 03:43:31;;;;;;;5.55;5.05;;;;;;;;;;5071188;28;20190;-71
2022/03/15 03:45:58;;;;;;;6.70;5.40;;;;;;;;;;5068431;28;20195;-72
2022/03/15 03:48:27;;;;;;;5.28;4.78;;;;;;;;;;5071918;28;20195;-72
2022/03/15 03:50:54;;;;;;;5.53;5.00;;;;;;;;;;5071262;28;20243;-71
2022/03/15 03:53:22;;;;;;;4.90;4.38;;;;;;;;;;5066217;28;20205;-72
2022/03/15 03:55:50;;;;;;;5.82;5.22;;;;;;;;;;5072345;28;20212;-72
2022/03/15 03:58:17;;;;;;;4.97;4.38;;;;;;;;;;5071394;28;20222;-71
2022/03/15 04:00:44;;;;;;;4.60;4.20;;;;;;;;;;5060561;28;20758;-71
2022/03/15 04:03:16;;;;;;;7.85;4.88;;;;;;;;;;5071576;28;20198;-72
2022/03/15 04:05:45;;;;;;;7.05;5.47;;;;;;;;;;5071069;28;20682;-72
2022/03/15 04:08:13;;;;;;;5.15;4.60;;;;;;;;;;5063967;28;20275;-72
2022/03/15 04:10:40;;;;;;;6.82;5.00;;;;;;;;;;5070066;28;20641;-72
2022/03/15 04:13:07;;;;;;;5.72;4.30;;;;;;;;;;5063070;28;20191;-71
2022/03/15 04:15:35;;;;;;;5.30;4.35;;;;;;;;;;5068159;28;20576;-71
2022/03/15 04:18:03;;;;;;;5.90;5.25;;;;;;;;;;5067489;28;20198;-72
2022/03/15 04:20:31;;;;;;;5.90;4.35;;;;;;;;;;5071629;28;20230;-72
2022/03/15 04:22:59;;;;;;;5.40;4.82;;;;;;;;;;5066194;28;20197;-71
2022/03/15 04:25:26;;;;;;;4.90;4.43;;;;;;;;;;5070468;28;20221;-71
2022/03/15 04:27:56;;;;;;;5.22;4.72;;;;;;;;;;5069874;28;20704;-71
2022/03/15 04:30:24;;;;;;;7.22;5.38;;;;;;;;;;5072411;28;20194;-71
2022/03/15 04:32:51;;;;;;;6.32;5.35;;;;;;;;;;5067322;28;20216;-70
2022/03/15 04:35:18;;;;;;;5.55;4.93;;;;;;;;;;5071237;28;20281;-70
2022/03/15 04:37:45;;;;;;;8.05;5.20;;;;;;;;;;5063149;28;20199;-72
2022/03/15 04:40:17;;;;;;;5.55;4.70;;;;;;;;;;5070786;28;20563;-71
2022/03/15 04:42:45;;;;;;;5.68;4.22;;;;;;;;;;5074689;28;20190;-71
2022/03/15 04:45:13;;;;;;;7.40;4.80;;;;;;;;;;5069153;28;20186;-71
2022/03/15 04:47:40;;;;;;;4.57;4.10;;;;;;;;;;5069235;28;20214;-71
2022/03/15 04:50:08;;;;;;;5.00;4.38;;;;;;;;;;5070577;28;20194;-71
2022/03/15 04:52:35;;;;;;;5.88;4.55;;;;;;;;;;5079012;28;20189;-70
2022/03/15 04:55:02;;;;;;;6.20;5.18;;;;;;;;;;5083267;28;20388;-71
2022/03/15 04:57:31;;;;;;;4.72;4.22;;;;;;;;;;5069866;28;20198;-71
2022/03/15 04:59:58;;;;;;;6.22;5.45;;;;;;;;;;5060946;28;20202;-71
2022/03/15 05:02:25;;;;;;;5.97;5.40;;;;;;;;;;5071363;28;20221;-72
2022/03/15 05:04:52;;;;;;;6.57;5.03;;;;;;;;;;5070851;28;20691;-71
2022/03/15 05:07:19;;;;;;;4.55;4.13;;;;;;;;;;5059972;28;20244;-71
2022/03/15 05:12:28;;;;;;;5.10;3.60;;;;;;;;;;5070224;28;20611;-71
2022/03/15 05:14:57;;;;;;;5.65;4.43;;;;;;;;;;5065753;28;20247;-72
2022/03/15 05:17:24;;;;;;;6.78;4.85;;;;;;;;;;5067062;28;20726;-72
2022/03/15 05:19:51;;;;;;;6.55;4.50;;;;;;;;;;5067218;28;20591;-71
2022/03/15 05:22:19;;;;;;;6.57;5.22;;;;;;;;;;5067224;28;20581;-72
2022/03/15 05:24:46;;;;;;;6.13;4.25;;;;;;;;;;5067839;28;20214;-72
2022/03/15 05:27:13;;;;;;;5.18;4.25;;;;;;;;;;5068660;28;20221;-71
2022/03/15 05:29:40;;;;;;;4.80;4.22;;;;;;;;;;5067046;28;20540;-71
2022/03/15 05:32:09;;;;;;;8.88;4.85;;;;;;;;;;5070431;28;20206;-72
2022/03/15 05:34:36;;;;;;;6.00;4.55;;;;;;;;;;5071139;28;20198;-71
2022/03/15 05:37:03;;;;;;;7.85;4.93;;;;;;;;;;5069333;28;20194;-71
2022/03/15 05:39:30;;;;;;;5.88;4.30;;;;;;;;;;5071269;28;20186;-72
2022/03/15 05:41:57;;;;;;;5.82;5.28;;;;;;;;;;5072665;28;20194;-72
2022/03/15 05:44:24;;;;;;;6.40;4.65;;;;;;;;;;5065393;28;20199;-72
2022/03/15 05:46:51;;;;;;;8.23;5.40;;;;;;;;;;5073104;28;20222;-72
2022/03/15 05:49:19;;;;;;;8.25;5.43;;;;;;;;;;5075158;28;20197;-72
2022/03/15 05:51:46;;;;;;;5.35;4.68;;;;;;;;;;5073298;28;20194;-71
2022/03/15 05:54:13;;;;;;;11.40;5.18;;;;;;;;;;5067504;28;20198;-72
2022/03/15 05:56:40;;;;;;;6.72;5.45;;;;;;;;;;5073485;28;20194;-72
2022/03/15 05:59:08;;;;;;;6.40;5.15;;;;;;;;;;5068595;28;20567;-73
2022/03/15 06:01:35;;;;;;;7.78;5.75;;;;;;;;;;5069712;28;20221;-72
2022/03/15 06:04:02;;;;;;;5.70;4.13;;;;;;;;;;5071611;28;20202;-72
2022/03/15 06:06:30;;;;;;;4.80;4.30;;;;;;;;;;5066462;28;20194;-72
2022/03/15 06:08:57;;;;;;;7.80;4.70;;;;;;;;;;5075643;28;20217;-72
2022/03/15 06:11:24;;;;;;;6.60;4.80;;;;;;;;;;5074879;28;20213;-71
2022/03/15 06:13:51;;;;;;;5.63;5.03;;;;;;;;;;5070280;28;20194;-71
2022/03/15 06:16:18;;;;;;;6.13;4.25;;;;;;;;;;5070161;28;20205;-72
2022/03/15 06:18:45;;;;;;;5.45;4.60;;;;;;;;;;5069308;28;20194;-71
2022/03/15 06:21:12;;;;;;;6.15;4.50;;;;;;;;;;5070855;28;20201;-72
2022/03/15 06:23:40;;;;;;;6.43;4.20;;;;;;;;;;5068821;28;20225;-72
2022/03/15 06:26:08;;;;;;;7.68;5.00;;;;;;;;;;5068876;28;20698;-72
2022/03/15 06:28:35;;;;;;;5.53;5.00;;;;;;;;;;5071138;28;20752;-72
2022/03/15 06:31:03;;;;;;;6.50;5.60;;;;;;;;;;5069695;28;20205;-72
2022/03/15 06:33:30;;;;;;;6.97;5.90;;;;;;;;;;5072684;28;20505;-71
2022/03/15 06:35:57;;;;;;;7.57;5.60;;;;;;;;;;5073232;28;20707;-72
2022/03/15 06:38:24;;;;;;;7.15;5.10;;;;;;;;;;5069750;28;20210;-73
2022/03/15 06:40:53;;;;;;;7.15;5.28;;;;;;;;;;5070870;28;20206;-71
2022/03/15 06:43:21;;;;;;;6.88;5.43;;;;;;;;;;5085529;28;20248;-72
2022/03/15 06:45:48;;;;;;;8.93;6.03;;;;;;;;;;5063589;28;20190;-72
2022/03/15 06:48:15;;;;;;;6.75;4.78;;;;;;;;;;5071239;28;20217;-72
2022/03/15 06:50:42;;;;;;;7.95;5.47;;;;;;;;;;5075352;28;20727;-72
2022/03/15 06:53:09;;;;;;;7.65;5.20;;;;;;;;;;5067686;28;20198;-72
2022/03/15 06:55:36;;;;;;;5.47;4.50;;;;;;;;;;5069175;28;20549;-73
2022/03/15 06:58:05;;;;;;;6.57;4.80;;;;;;;;;;5066171;28;20186;-71
2022/03/15 07:00:32;;;;;;;9.20;6.22;;;;;;;;;;5058676;28;20206;-72
2022/03/15 07:02:59;;;;;;;6.32;4.72;;;;;;;;;;5070902;28;20190;-72
2022/03/15 07:05:26;;;;;;;6.50;5.35;;;;;;;;;;5073431;28;20668;-71
2022/03/15 07:07:53;;;;;;;4.53;4.13;;;;;;;;;;5070271;28;20218;-72
2022/03/15 07:10:20;;;;;;;7.30;5.22;;;;;;;;;;5069541;28;20194;-72
2022/03/15 07:12:48;;;;;;;5.72;4.40;;;;;;;;;;5078038;28;20617;-72
2022/03/15 07:15:17;;;;;;;5.28;4.18;;;;;;;;;;5067030;28;20198;-73
2022/03/15 07:17:50;;;;;;;7.25;5.32;;;;;;;;;;5071993;28;20198;-71
2022/03/15 07:20:18;;;;;;;6.30;4.97;;;;;;;;;;5071135;28;20252;-72
2022/03/15 07:22:45;;;;;;;6.60;5.95;;;;;;;;;;5072887;28;20195;-70
2022/03/15 07:25:12;;;;;;;5.70;4.35;;;;;;;;;;5070472;28;20225;-71
2022/03/15 07:27:39;;;;;;;11.02;6.18;;;;;;;;;;5070853;28;20214;-71
2022/03/15 07:30:07;;;;;;;7.93;6.50;;;;;;;;;;5068354;28;20221;-72
2022/03/15 07:32:36;;;;;;;6.53;4.53;;;;;;;;;;5072383;28;20201;-72
2022/03/15 07:35:03;;;;;;;6.05;4.22;;;;;;;;;;5073254;28;20260;-71
2022/03/15 07:37:30;;;;;;;8.57;5.00;;;;;;;;;;5069487;28;20317;-71
2022/03/15 07:39:57;;;;;;;5.60;4.57;;;;;;;;;;5061119;28;20650;-72
2022/03/15 07:42:25;;;;;;;6.68;5.45;;;;;;;;;;5068951;28;20197;-71
2022/03/15 07:44:52;;;;;;;8.73;5.55;;;;;;;;;;5066672;28;20636;-72
2022/03/15 07:47:19;;;;;;;12.15;7.10;;;;;;;;;;5074007;28;20190;-72
2022/03/15 07:49:50;;;;;;;5.20;4.20;;;;;;;;;;5068444;28;20206;-72
2022/03/15 07:52:17;;;;;;;6.28;4.65;;;;;;;;;;5070863;28;20549;-71
2022/03/15 07:54:46;;;;;;;8.90;5.60;;;;;;;;;;5071901;28;20209;-71
2022/03/15 07:57:12;;;;;;;6.55;5.30;;;;;;;;;;5065530;28;20233;-71
2022/03/15 07:59:39;;;;;;;6.25;4.75;;;;;;;;;;5063817;28;20198;-71
2022/03/15 08:02:07;;;;;;;5.68;5.15;;;;;;;;;;5070787;28;20195;-71
2022/03/15 08:04:34;;;;;;;12.38;5.85;;;;;;;;;;5070683;28;20209;-72
2022/03/15 08:07:02;;;;;;;13.65;5.70;;;;;;;;;;5062793;28;20191;-71
2022/03/15 08:09:29;;;;;;;7.03;5.78;;;;;;;;;;5065330;28;20226;-71
2022/03/15 08:11:56;;;;;;;7.57;4.93;;;;;;;;;;5070952;28;20198;-71
2022/03/15 08:14:23;;;;;;;8.95;6.57;;;;;;;;;;5067315;28;20197;-73
2022/03/15 08:16:50;;;;;;;7.55;5.47;;;;;;;;;;5072077;28;20210;-71
2022/03/15 08:19:18;;;;;;;9.05;5.15;;;;;;;;;;5069226;28;20206;-72
2022/03/15 08:21:45;;;;;;;8.02;5.68;;;;;;;;;;5070116;28;20198;-71
2022/03/15 08:24:14;;;;;;;5.68;4.82;;;;;;;;;;5071177;28;20230;-73
2022/03/15 08:26:41;;;;;;;6.75;5.13;;;;;;;;;;5067216;28;20252;-72
2022/03/15 08:29:08;;;;;;;7.18;5.30;;;;;;;;;;5067355;28;20228;-71
2022/03/15 08:31:35;;;;;;;9.57;7.00;;;;;;;;;;5070864;28;20199;-71
2022/03/15 08:34:02;;;;;;;7.38;5.57;;;;;;;;;;5065907;28;20213;-71
2022/03/15 08:36:29;;;;;;;10.10;5.50;;;;;;;;;;5064679;28;20198;-72
2022/03/15 08:38:56;;;;;;;12.60;6.38;;;;;;;;;;5064620;28;20197;-70
2022/03/15 08:41:25;;;;;;;6.82;4.97;;;;;;;;;;5064385;28;20233;-77
2022/03/15 08:43:53;;;;;;;10.73;5.50;;;;;;;;;;5069616;28;20194;-77
2022/03/15 08:46:20;;;;;;;5.55;5.00;;;;;;;;;;5064152;28;20190;-77
2022/03/15 08:48:47;;;;;;;5.43;4.93;;;;;;;;;;5068157;28;20245;-75
2022/03/15 08:51:14;;;;;;;6.70;4.60;;;;;;;;;;5068155;28;20195;-78
2022/03/15 08:53:41;;;;;;;6.93;5.32;;;;;;;;;;5067920;28;20293;-75
2022/03/15 08:56:09;;;;;;;6.95;5.85;;;;;;;;;;5069265;28;20202;-70
2022/03/15 08:58:37;;;;;;;10.00;4.97;;;;;;;;;;5066166;28;20206;-71
2022/03/15 09:01:04;;;;;;;8.02;5.35;;;;;;;;;;5067056;28;20669;-71
2022/03/15 09:03:31;;;;;;;8.32;5.25;;;;;;;;;;5061947;28;20189;-71
2022/03/15 09:05:58;;;;;;;4.90;4.47;;;;;;;;;;5062901;28;20202;-71
2022/03/15 09:08:25;;;;;;;4.93;4.43;;;;;;;;;;5060698;28;20211;-70
2022/03/15 09:10:52;;;;;;;8.70;5.10;;;;;;;;;;5061061;28;20264;-70
2022/03/15 09:13:19;;;;;;;8.02;4.35;;;;;;;;;;5062393;28;20205;-70
2022/03/15 09:15:48;;;;;;;7.70;4.53;;;;;;;;;;5061524;28;20226;-72
2022/03/15 09:18:14;;;;;;;6.05;4.38;;;;;;;;;;5062623;28;20213;-71
2022/03/15 09:20:42;;;;;;;6.57;5.63;;;;;;;;;;5066390;28;20194;-70
2022/03/15 09:23:10;;;;;;;6.80;5.45;;;;;;;;;;5067403;28;20230;-70
2022/03/15 09:25:37;;;;;;;7.68;5.80;;;;;;;;;;5065050;28;20198;-71
2022/03/15 09:28:04;;;;;;;9.35;5.78;;;;;;;;;;5065040;28;20635;-70
2022/03/15 09:30:32;;;;;;;7.55;4.55;;;;;;;;;;5064768;28;20200;-71
2022/03/15 09:33:00;;;;;;;5.93;4.35;;;;;;;;;;5064417;28;20202;-70
2022/03/15 09:35:28;;;;;;;12.18;4.45;;;;;;;;;;5067190;28;20194;-71
2022/03/15 09:37:55;;;;;;;8.82;4.60;;;;;;;;;;5066810;28;20209;-70
2022/03/15 09:40:23;;;;;;;8.85;4.43;;;;;;;;;;5067417;28;20221;-71
2022/03/15 09:42:52;;;;;;;5.75;4.90;;;;;;;;;;5063792;28;20194;-71
2022/03/15 09:45:22;;;;;;;5.93;4.35;;;;;;;;;;5063347;28;20226;-70
2022/03/15 09:47:52;;;;;;;5.63;4.35;;;;;;;;;;5064292;28;20198;-70
2022/03/15 09:50:21;;;;;;;8.27;4.72;;;;;;;;;;5065299;28;20938;-71
2022/03/15 09:52:48;;;;;;;5.65;4.60;;;;;;;;;;5066060;28;20190;-71
2022/03/15 09:55:15;;;;;;;6.72;4.57;;;;;;;;;;5066422;28;20205;-70
2022/03/15 09:57:43;;;;;;;7.15;4.65;;;;;;;;;;5071657;28;20206;-71
2022/03/15 10:00:12;;;;;;;6.95;3.90;;;;;;;;;;5066038;28;20233;-70
2022/03/15 10:02:41;;;;;;;3.78;3.28;;;;;;;;;;5069898;28;20538;-71
2022/03/15 10:05:09;;;;;;;4.50;3.75;;;;;;;;;;5072670;28;20281;-70
2022/03/15 10:07:37;;;;;;;5.13;4.43;;;;;;;;;;5069502;28;20217;-72
2022/03/15 10:10:06;;;;;;;6.90;3.63;;;;;;;;;;5069984;28;20720;-72
2022/03/15 10:12:34;;;;;;;5.50;4.07;;;;;;;;;;5064097;28;20195;-72
2022/03/15 10:15:11;;;;;;;5.30;3.58;;;;;;;;;;5064742;28;20191;-70
2022/03/15 10:17:42;;;;;;;3.95;3.55;;;;;;;;;;5067369;28;20255;-71
2022/03/15 10:20:10;;;;;;;4.40;3.13;;;;;;;;;;5067826;28;20615;-74
2022/03/15 10:22:38;;;;;;;3.80;3.38;;;;;;;;;;5067100;28;20205;-71
2022/03/15 10:25:05;;;;;;;3.88;3.47;;;;;;;;;;5069130;28;20903;-72
2022/03/15 10:27:35;;;;;;;5.38;4.07;;;;;;;;;;5068636;28;20193;-73
2022/03/15 10:30:03;;;;;;;4.95;4.05;;;;;;;;;;5065554;28;20222;-72
2022/03/15 10:32:30;;;;;;;9.35;3.58;;;;;;;;;;5076589;28;20446;-72
2022/03/15 10:35:06;;;;;;;4.32;3.70;;;;;;;;;;5068922;28;20198;-72
2022/03/15 10:37:35;;;;;;;4.60;3.30;;;;;;;;;;5067584;28;20220;-71
2022/03/15 10:40:04;;;;;;;6.82;3.80;;;;;;;;;;5069933;28;20213;-72
2022/03/15 10:42:30;;;;;;;5.03;3.03;;;;;;;;;;5068986;28;20205;-71
2022/03/15 10:44:58;;;;;;;5.53;3.20;;;;;;;;;;5067485;28;20614;-71
2022/03/15 10:47:25;;;;;;;10.27;3.45;;;;;;;;;;5069019;28;20209;-72
2022/03/15 10:49:54;;;;;;;3.58;3.10;;;;;;;;;;5070138;28;20300;-72
2022/03/15 10:52:30;;;;;;;3.45;3.03;;;;;;;;;;5061505;28;20260;-71
2022/03/15 10:54:57;;;;;;;6.07;3.30;;;;;;;;;;5073552;28;20657;-72
2022/03/15 10:57:25;;;;;;;5.38;3.55;;;;;;;;;;5068514;28;20256;-72
2022/03/15 10:59:54;;;;;;;4.30;3.08;;;;;;;;;;5065702;28;20202;-73
2022/03/15 11:02:30;;;;;;;6.25;3.33;;;;;;;;;;5069630;28;20202;-72
2022/03/15 11:04:57;;;;;;;7.97;3.35;;;;;;;;;;5068352;28;20285;-73
2022/03/15 11:07:24;;;;;;;6.45;3.30;;;;;;;;;;5064577;28;20205;-74
2022/03/15 11:09:57;;;;;;;3.67;2.60;;;;;;;;;;5064854;28;20221;-72
2022/03/15 11:12:26;;;;;;;4.80;3.15;;;;;;;;;;5068246;28;20728;-73
2022/03/15 11:14:57;;;;;;;8.00;3.13;;;;;;;;;;5068353;28;20209;-72
2022/03/15 11:17:25;;;;;;;4.38;2.70;;;;;;;;;;5066903;28;20434;-73
2022/03/15 11:19:52;;;;;;;5.25;3.22;;;;;;;;;;5068603;28;20209;-72
2022/03/15 11:22:22;;;;;;;3.33;3.03;;;;;;;;;;5066520;28;20201;-71
2022/03/15 11:24:51;;;;;;;2.88;2.25;;;;;;;;;;5069356;28;20245;-74
2022/03/15 11:27:21;;;;;;;3.10;2.80;;;;;;;;;;5066801;28;20237;-72
2022/03/15 11:29:52;;;;;;;6.55;3.28;;;;;;;;;;5060884;28;20218;-73
2022/03/15 11:32:19;;;;;;;3.47;3.15;;;;;;;;;;5067345;28;20976;-73
2022/03/15 11:34:47;;;;;;;5.18;3.53;;;;;;;;;;5067840;28;20198;-72
2022/03/15 11:37:14;;;;;;;3.83;2.80;;;;;;;;;;5063055;28;20229;-72
2022/03/15 11:39:42;;;;;;;2.78;2.50;;;;;;;;;;5061038;28;20230;-72
2022/03/15 11:42:10;;;;;;;3.17;2.25;;;;;;;;;;5065632;28;20285;-71
2022/03/15 11:44:42;;;;;;;4.15;2.72;;;;;;;;;;5060570;28;20202;-73
2022/03/15 11:47:15;;;;;;;4.60;2.35;;;;;;;;;;5068228;28;20628;-71
2022/03/15 11:49:45;;;;;;;3.40;2.92;;;;;;;;;;5076007;28;20238;-71
2022/03/15 11:52:18;;;;;;;2.75;2.50;;;;;;;;;;5065889;28;20532;-70
2022/03/15 11:54:48;;;;;;;2.80;2.40;;;;;;;;;;5068237;28;20198;-71
2022/03/15 11:57:21;;;;;;;3.75;3.13;;;;;;;;;;5062291;28;20209;-73
2022/03/15 11:59:49;;;;;;;6.95;3.38;;;;;;;;;;5063012;28;20206;-72
2022/03/15 12:02:29;;;;;;;6.32;3.05;;;;;;;;;;5068570;28;20695;-72
2022/03/15 12:04:57;;;;;;;8.25;2.70;;;;;;;;;;5068573;28;20194;-71
2022/03/15 12:07:44;;;;;;;5.10;3.00;;;;;;;;;;5066618;28;20236;-71
2022/03/15 12:10:12;;;;;;;4.45;3.45;;;;;;;;;;5059274;28;20221;-72
2022/03/15 12:12:42;;;;;;;3.50;2.45;;;;;;;;;;5065795;28;20583;-71
2022/03/15 12:15:15;;;;;;;4.18;3.15;;;;;;;;;;5064258;28;20225;-72
2022/03/15 12:17:43;;;;;;;3.35;2.28;;;;;;;;;;5064555;28;20205;-73
2022/03/15 12:20:16;;;;;;;3.72;2.60;;;;;;;;;;5067964;28;20201;-74
2022/03/15 12:22:44;;;;;;;3.35;2.55;;;;;;;;;;5062912;28;20202;-72
2022/03/15 12:25:14;;;;;;;2.53;2.25;;;;;;;;;;5061176;28;20623;-71
2022/03/15 12:27:42;;;;;;;3.10;2.67;;;;;;;;;;5065878;28;20199;-73
2022/03/15 12:30:09;;;;;;;5.78;2.80;;;;;;;;;;5070516;28;20566;-71
2022/03/15 12:32:38;;;;;;;7.15;2.60;;;;;;;;;;5067214;28;20190;-73
2022/03/15 12:35:08;;;;;;;6.60;2.33;;;;;;;;;;5068281;28;20619;-72
2022/03/15 12:37:37;;;;;;;7.18;3.28;;;;;;;;;;5066878;28;20206;-71
2022/03/15 12:40:06;;;;;;;4.95;2.10;;;;;;;;;;5067674;28;20197;-73
2022/03/15 12:42:33;;;;;;;6.78;2.92;;;;;;;;;;5066249;28;20194;-71
2022/03/15 12:45:02;;;;;;;3.95;2.65;;;;;;;;;;5063789;28;20540;-72
2022/03/15 12:47:30;;;;;;;4.72;2.78;;;;;;;;;;5066114;28;20252;-72
2022/03/15 12:50:09;;;;;;;5.63;2.30;;;;;;;;;;5067768;28;20222;-72
2022/03/15 12:52:43;;;;;;;2.10;1.75;;;;;;;;;;5064963;28;20225;-73
2022/03/15 12:55:16;;;;;;;3.20;2.45;;;;;;;;;;5066989;28;20248;-74
2022/03/15 12:57:44;;;;;;;2.10;1.77;;;;;;;;;;5065124;28;20607;-73
2022/03/15 13:00:11;;;;;;;3.55;2.75;;;;;;;;;;5059745;28;20281;-72
2022/03/15 13:02:38;;;;;;;4.97;2.58;;;;;;;;;;5068305;28;20202;-73
2022/03/15 13:05:15;;;;;;;4.90;2.33;;;;;;;;;;5067366;28;20220;-73
2022/03/15 13:07:42;;;;;;;4.45;2.15;;;;;;;;;;5061716;28;20617;-73
2022/03/15 13:10:14;;;;;;;1.95;1.67;;;;;;;;;;5062610;28;20214;-72
2022/03/15 13:12:43;;;;;;;3.13;2.80;;;;;;;;;;5058966;28;20657;-73
2022/03/15 13:15:13;;;;;;;2.10;1.85;;;;;;;;;;5058949;28;20665;-74
2022/03/15 13:17:48;;;;;;;3.60;2.00;;;;;;;;;;5060709;28;20202;-72
2022/03/15 13:20:26;;;;;;;3.42;2.97;;;;;;;;;;5064128;28;20660;-72
2022/03/15 13:22:57;;;;;;;5.35;2.63;;;;;;;;;;5059379;28;20193;-74
2022/03/15 13:25:24;;;;;;;6.28;2.53;;;;;;;;;;5060020;28;20304;-73
2022/03/15 13:27:56;;;;;;;5.82;3.85;;;;;;;;;;5064045;28;20576;-74
2022/03/15 13:30:23;;;;;;;6.28;1.60;;;;;;;;;;5061973;28;20641;-73
2022/03/15 13:32:53;;;;;;;2.80;2.50;;;;;;;;;;5062768;28;20194;-73
2022/03/15 13:35:24;;;;;;;2.15;1.83;;;;;;;;;;5067781;28;20226;-73
2022/03/15 13:37:52;;;;;;;4.88;2.35;;;;;;;;;;5065756;28;20229;-73
2022/03/15 13:40:23;;;;;;;3.60;2.17;;;;;;;;;;5061044;28;20198;-72
2022/03/15 13:42:50;;;;;;;2.28;1.73;;;;;;;;;;5066626;28;20194;-72
2022/03/15 13:45:17;;;;;;;3.83;2.35;;;;;;;;;;5064974;28;20198;-72
2022/03/15 13:47:51;;;;;;;3.47;1.88;;;;;;;;;;5066600;28;20201;-72
2022/03/15 13:50:19;;;;;;;2.30;2.10;;;;;;;;;;5067499;28;20279;-72
2022/03/15 13:52:48;;;;;;;2.45;2.25;;;;;;;;;;5063269;28;20209;-73
2022/03/15 13:55:19;;;;;;;3.15;2.17;;;;;;;;;;5056833;28;20661;-73
2022/03/15 13:57:51;;;;;;;3.35;3.05;;;;;;;;;;5065403;28;20217;-72
2022/03/15 14:00:20;;;;;;;2.22;2.03;;;;;;;;;;5067014;28;20201;-71
2022/03/15 14:02:50;;;;;;;4.05;2.35;;;;;;;;;;5069340;28;20194;-72
2022/03/15 14:05:19;;;;;;;5.50;2.35;;;;;;;;;;5070837;28;20194;-72
2022/03/15 14:07:48;;;;;;;2.88;2.00;;;;;;;;;;5067723;28;20678;-72
2022/03/15 14:10:17;;;;;;;2.33;1.90;;;;;;;;;;5070409;28;20708;-72
2022/03/15 14:12:45;;;;;;;4.22;2.42;;;;;;;;;;5064550;28;20222;-72
2022/03/15 14:15:14;;;;;;;4.18;2.35;;;;;;;;;;5066156;28;20962;-71
2022/03/15 14:17:47;;;;;;;6.32;3.38;;;;;;;;;;5074011;28;20727;-72
2022/03/15 14:20:15;;;;;;;2.25;2.00;;;;;;;;;;5076113;28;20205;-72
2022/03/15 14:22:48;;;;;;;2.40;2.20;;;;;;;;;;5068218;28;20240;-75
2022/03/15 14:25:21;;;;;;;3.40;2.30;;;;;;;;;;5063186;28;20311;-73
2022/03/15 14:27:49;;;;;;;2.80;2.20;;;;;;;;;;5067874;28;20617;-73
2022/03/15 14:30:19;;;;;;;3.30;1.90;;;;;;;;;;5067264;28;20310;-74
2022/03/15 14:32:53;;;;;;;4.75;2.00;;;;;;;;;;5070162;28;20239;-73
2022/03/15 14:35:26;;;;;;;3.05;2.20;;;;;;;;;;5070118;28;20186;-73
2022/03/15 14:38:04;;;;;;;3.05;2.22;;;;;;;;;;5076874;28;20194;-73
2022/03/15 14:40:38;;;;;;;3.08;1.75;;;;;;;;;;5070284;28;20271;-73
2022/03/15 14:43:05;;;;;;;2.63;2.42;;;;;;;;;;5072251;28;20224;-72
2022/03/15 14:45:33;;;;;;;2.80;1.85;;;;;;;;;;5068757;28;20209;-73
2022/03/15 14:48:00;;;;;;;3.15;2.00;;;;;;;;;;5069200;28;20187;-74
2022/03/15 14:50:28;;;;;;;4.07;2.40;;;;;;;;;;5066264;28;20225;-73
2022/03/15 14:52:55;;;;;;;2.50;1.60;;;;;;;;;;5066344;28;20224;-72